createdAt,value
2023-03-13T00:01:45.194Z,70.73
2023-03-13T00:04:12.025Z,70.98
2023-03-13T00:06:39.953Z,70.73
2023-03-13T00:09:10.871Z,70.59
2023-03-13T00:11:37.699Z,70.93
2023-03-13T00:14:06.387Z,70.52
2023-03-13T00:16:35.469Z,70.51
2023-03-13T00:19:02.368Z,70.52
2023-03-13T00:21:30.177Z,70.56
2023-03-13T00:24:00.104Z,70.22
2023-03-13T00:26:28.518Z,70.70
2023-03-13T00:28:55.948Z,70.58
2023-03-13T00:31:29.683Z,70.79
2023-03-13T00:34:02.160Z,70.51
2023-03-13T00:36:33.097Z,70.30
2023-03-13T00:39:00.185Z,70.39
2023-03-13T00:41:30.668Z,70.54
2023-03-13T00:43:57.738Z,70.53
2023-03-13T00:46:28.164Z,70.14
2023-03-13T00:48:55.394Z,70.32
2023-03-13T00:51:24.110Z,70.50
2023-03-13T00:53:50.984Z,70.51
2023-03-13T00:56:20.025Z,70.13
2023-03-13T00:58:49.093Z,70.68
2023-03-13T01:01:27.109Z,70.53
2023-03-13T01:04:01.083Z,70.39
2023-03-13T01:06:31.371Z,70.25
2023-03-13T01:08:58.714Z,70.53
2023-03-13T01:11:29.702Z,70.16
2023-03-13T01:13:59.934Z,70.49
2023-03-13T01:16:29.725Z,70.17
2023-03-13T01:19:00.972Z,69.98
2023-03-13T01:21:28.550Z,70.17
2023-03-13T01:23:55.889Z,70.34
2023-03-13T01:26:23.833Z,70.34
2023-03-13T01:28:51.407Z,70.06
2023-03-13T01:31:25.196Z,69.77
2023-03-13T01:33:56.363Z,70.19
2023-03-13T01:36:23.816Z,70.22
2023-03-13T01:38:53.595Z,70.29
2023-03-13T01:41:22.350Z,70.33
2023-03-13T01:43:49.284Z,69.95
2023-03-13T01:46:27.777Z,70.08
2023-03-13T01:49:07.878Z,69.99
2023-03-13T01:51:42.359Z,70.16
2023-03-13T01:54:27.123Z,70.30
2023-03-13T01:57:04.335Z,70.03
2023-03-13T01:59:40.576Z,70.39
2023-03-13T02:02:08.687Z,70.48
2023-03-13T02:04:40.031Z,70.73
2023-03-13T02:07:17.231Z,69.86
2023-03-13T02:09:52.005Z,70.05
2023-03-13T02:12:41.797Z,70.19
2023-03-13T02:15:17.036Z,70.29
2023-03-13T02:17:45.761Z,70.10
2023-03-13T02:20:14.902Z,70.40
2023-03-13T02:23:00.883Z,70.56
2023-03-13T02:25:52.373Z,70.53
2023-03-13T02:28:27.055Z,70.34
2023-03-13T02:30:56.835Z,70.40
2023-03-13T02:33:32.763Z,70.29
2023-03-13T02:36:02.249Z,70.39
2023-03-13T02:38:31.948Z,70.57
2023-03-13T02:41:01.590Z,70.23
2023-03-13T02:43:34.406Z,70.74
2023-03-13T02:46:21.842Z,70.22
2023-03-13T02:48:55.310Z,70.61
2023-03-13T02:51:29.596Z,70.49
2023-03-13T02:54:05.073Z,70.50
2023-03-13T02:56:34.714Z,70.87
2023-03-13T02:59:01.497Z,70.49
2023-03-13T03:01:28.294Z,70.57
2023-03-13T03:03:55.266Z,70.66
2023-03-13T03:06:22.060Z,70.68
2023-03-13T03:08:48.862Z,70.62
2023-03-13T03:11:15.773Z,70.79
2023-03-13T03:13:42.847Z,70.52
2023-03-13T03:16:12.738Z,70.82
2023-03-13T03:18:39.651Z,70.71
2023-03-13T03:21:07.305Z,70.63
2023-03-13T03:23:36.484Z,70.50
2023-03-13T03:26:05.035Z,70.72
2023-03-13T03:28:32.262Z,70.76
2023-03-13T03:31:11.552Z,71.05
2023-03-13T03:33:39.672Z,70.77
2023-03-13T03:36:11.000Z,70.89
2023-03-13T03:38:39.737Z,70.89
2023-03-13T03:41:08.124Z,71.32
2023-03-13T03:43:35.557Z,70.88
2023-03-13T03:46:03.043Z,70.86
2023-03-13T03:48:29.950Z,71.25
2023-03-13T03:50:56.993Z,71.11
2023-03-13T03:53:24.266Z,70.81
2023-03-13T03:55:51.097Z,71.04
2023-03-13T03:58:17.879Z,70.80
2023-03-13T04:00:46.634Z,71.06
2023-03-13T04:03:14.387Z,71.36
2023-03-13T04:05:41.256Z,71.22
2023-03-13T04:08:09.003Z,71.14
2023-03-13T04:10:36.324Z,71.08
2023-03-13T04:13:03.122Z,71.31
2023-03-13T04:15:29.948Z,71.34
2023-03-13T04:17:56.780Z,71.38
2023-03-13T04:20:23.605Z,71.22
2023-03-13T04:22:50.544Z,71.46
2023-03-13T04:25:17.874Z,71.06
2023-03-13T04:27:44.675Z,71.34
2023-03-13T04:30:12.348Z,71.15
2023-03-13T04:32:39.224Z,71.41
2023-03-13T04:35:06.407Z,71.62
2023-03-13T04:37:33.210Z,71.59
2023-03-13T04:39:59.979Z,71.32
2023-03-13T04:42:26.757Z,71.35
2023-03-13T04:44:53.581Z,71.28
2023-03-13T04:47:20.469Z,71.52
2023-03-13T04:49:47.251Z,71.82
2023-03-13T04:52:14.044Z,71.51
2023-03-13T04:54:40.809Z,71.45
2023-03-13T04:57:07.587Z,71.62
2023-03-13T04:59:34.407Z,71.75
2023-03-13T05:02:01.213Z,71.72
2023-03-13T05:04:28.008Z,71.43
2023-03-13T05:06:54.820Z,71.54
2023-03-13T05:09:21.643Z,71.64
2023-03-13T05:11:50.310Z,71.72
2023-03-13T05:14:17.144Z,71.75
2023-03-13T05:16:43.920Z,72.10
2023-03-13T05:19:10.725Z,72.04
2023-03-13T05:21:37.502Z,72.14
2023-03-13T05:24:04.590Z,71.84
2023-03-13T05:26:31.350Z,71.88
2023-03-13T05:28:58.188Z,72.23
2023-03-13T05:31:25.015Z,72.21
2023-03-13T05:33:51.815Z,71.89
2023-03-13T05:36:18.590Z,72.09
2023-03-13T05:38:45.799Z,72.11
2023-03-13T05:41:12.607Z,72.09
2023-03-13T05:43:39.377Z,72.04
2023-03-13T05:46:06.204Z,72.08
2023-03-13T05:48:33.034Z,72.30
2023-03-13T05:50:59.793Z,72.43
2023-03-13T05:53:26.732Z,72.67
2023-03-13T05:55:53.561Z,72.42
2023-03-13T05:58:20.344Z,72.03
2023-03-13T06:00:48.641Z,72.26
2023-03-13T06:03:15.432Z,72.14
2023-03-13T06:05:42.282Z,72.48
2023-03-13T06:08:09.111Z,72.45
2023-03-13T06:10:35.922Z,72.36
2023-03-13T06:13:17.156Z,72.21
2023-03-13T06:15:55.783Z,72.27
2023-03-13T06:18:23.461Z,72.24
2023-03-13T06:20:50.720Z,72.43
2023-03-13T06:23:17.522Z,72.37
2023-03-13T06:25:48.457Z,72.67
2023-03-13T06:28:16.053Z,72.54
2023-03-13T06:30:43.281Z,72.29
2023-03-13T06:33:10.599Z,72.56
2023-03-13T06:35:55.092Z,72.31
2023-03-13T06:38:24.304Z,72.59
2023-03-13T06:40:51.161Z,72.35
2023-03-13T06:43:18.322Z,72.47
2023-03-13T06:45:45.142Z,72.51
2023-03-13T06:48:11.960Z,72.32
2023-03-13T06:50:40.206Z,72.34
2023-03-13T06:53:07.387Z,72.58
2023-03-13T06:55:34.250Z,72.75
2023-03-13T06:58:01.036Z,72.71
2023-03-13T07:00:28.132Z,72.40
2023-03-13T07:02:55.375Z,72.45
2023-03-13T07:05:22.146Z,72.65
2023-03-13T07:07:48.996Z,72.24
2023-03-13T07:10:17.026Z,72.49
2023-03-13T07:12:44.458Z,72.51
2023-03-13T07:15:11.587Z,72.60
2023-03-13T07:17:38.507Z,72.59
2023-03-13T07:20:09.707Z,72.67
2023-03-13T07:22:37.856Z,72.75
2023-03-13T07:25:05.838Z,72.79
2023-03-13T07:27:32.724Z,72.51
2023-03-13T07:29:59.520Z,72.61
2023-03-13T07:32:26.377Z,73.03
2023-03-13T07:34:53.395Z,73.18
2023-03-13T07:37:20.155Z,73.06
2023-03-13T07:39:46.943Z,72.95
2023-03-13T07:42:13.783Z,72.76
2023-03-13T07:44:40.585Z,72.88
2023-03-13T07:47:07.786Z,72.98
2023-03-13T07:49:39.306Z,72.92
2023-03-13T07:52:06.115Z,73.00
2023-03-13T07:54:32.906Z,72.88
2023-03-13T07:57:09.212Z,72.80
2023-03-13T07:59:36.091Z,72.88
2023-03-13T08:02:04.293Z,72.66
2023-03-13T08:04:44.714Z,72.75
2023-03-13T08:07:15.130Z,72.92
2023-03-13T08:09:42.116Z,72.89
2023-03-13T08:12:11.633Z,73.23
2023-03-13T08:14:38.417Z,73.24
2023-03-13T08:17:08.372Z,73.00
2023-03-13T08:19:35.285Z,73.01
2023-03-13T08:22:02.926Z,73.11
2023-03-13T08:24:32.800Z,72.92
2023-03-13T08:26:59.730Z,72.79
2023-03-13T08:29:26.587Z,72.79
2023-03-13T08:31:53.537Z,72.98
2023-03-13T08:34:20.847Z,73.03
2023-03-13T08:36:52.753Z,72.77
2023-03-13T08:39:21.127Z,73.14
2023-03-13T08:41:48.438Z,72.97
2023-03-13T08:44:18.366Z,72.93
2023-03-13T08:46:45.477Z,72.99
2023-03-13T08:49:13.381Z,72.92
2023-03-13T08:51:43.756Z,72.77
2023-03-13T08:54:10.804Z,72.86
2023-03-13T08:56:37.751Z,72.93
2023-03-13T08:59:10.023Z,72.73
2023-03-13T09:01:40.031Z,72.81
2023-03-13T09:04:07.677Z,72.96
2023-03-13T09:06:39.158Z,72.75
2023-03-13T09:09:07.579Z,72.82
2023-03-13T09:11:36.546Z,72.87
2023-03-13T09:14:07.422Z,72.92
2023-03-13T09:16:34.956Z,72.93
2023-03-13T09:19:05.182Z,72.96
2023-03-13T09:31:48.468Z,73.08
2023-03-13T09:42:51.078Z,73.07
2023-03-13T09:49:33.862Z,72.82
2023-03-13T09:56:52.382Z,72.62
2023-03-13T10:00:39.953Z,72.62
2023-03-13T10:10:17.351Z,72.72
2023-03-13T10:12:49.543Z,72.58
2023-03-13T10:16:06.253Z,72.45
2023-03-13T10:19:35.684Z,72.55
2023-03-13T10:22:43.793Z,72.55
2023-03-13T10:26:34.203Z,72.54
2023-03-13T10:29:30.339Z,72.53
2023-03-13T10:32:36.842Z,72.74
2023-03-13T10:35:37.722Z,72.73
2023-03-13T10:38:17.258Z,72.84
2023-03-13T10:41:18.842Z,72.60
2023-03-13T10:44:09.279Z,72.93
2023-03-13T10:46:50.505Z,72.75
2023-03-13T10:49:54.534Z,72.59
2023-03-13T10:55:32.818Z,72.18
2023-03-13T10:58:06.558Z,72.07
2023-03-13T11:00:41.198Z,71.94
2023-03-13T11:03:40.325Z,72.03
2023-03-13T11:09:43.042Z,72.44
2023-03-13T11:12:45.784Z,72.25
2023-03-13T11:15:38.657Z,71.90
2023-03-13T11:18:33.574Z,71.72
2023-03-13T11:21:31.007Z,71.56
2023-03-13T11:24:43.403Z,71.12
2023-03-13T11:28:11.059Z,70.87
2023-03-13T11:31:08.282Z,70.67
2023-03-13T11:34:21.554Z,70.61
2023-03-13T11:37:02.314Z,70.43
2023-03-13T11:40:16.432Z,70.44
2023-03-13T11:43:25.325Z,70.13
2023-03-13T11:46:26.822Z,69.91
2023-03-13T11:49:21.871Z,69.75
2023-03-13T11:52:29.410Z,69.39
2023-03-13T11:55:02.485Z,68.73
2023-03-13T11:57:40.521Z,68.60
2023-03-13T12:01:01.561Z,68.97
2023-03-13T12:03:52.979Z,68.89
2023-03-13T12:06:38.279Z,68.25
2023-03-13T12:09:17.231Z,68.57
2023-03-13T12:11:55.464Z,68.12
2023-03-13T12:14:31.529Z,67.57
2023-03-13T12:17:06.574Z,67.32
2023-03-13T12:19:42.173Z,67.01
2023-03-13T12:22:39.157Z,66.63
2023-03-13T12:25:33.566Z,67.01
2023-03-13T12:28:24.156Z,66.56
2023-03-13T12:31:31.781Z,66.35
2023-03-13T12:34:28.002Z,65.98
2023-03-13T12:37:02.776Z,65.69
2023-03-13T12:39:52.592Z,65.25
2023-03-13T12:42:46.068Z,65.81
2023-03-13T12:45:24.250Z,65.64
2023-03-13T12:48:41.858Z,65.85
2023-03-13T12:51:40.556Z,65.91
2023-03-13T12:54:36.720Z,65.52
2023-03-13T12:57:31.751Z,65.41
2023-03-13T13:00:10.856Z,67.21
2023-03-13T13:02:38.132Z,66.09
2023-03-13T13:05:05.647Z,65.26
2023-03-13T13:07:35.757Z,64.85
2023-03-13T13:10:11.867Z,64.79
2023-03-13T13:12:47.106Z,64.92
2023-03-13T13:15:27.481Z,64.87
2023-03-13T13:18:25.244Z,65.03
2023-03-13T13:21:06.878Z,65.34
2023-03-13T13:23:46.915Z,64.96
2023-03-13T13:26:29.610Z,64.91
2023-03-13T13:29:22.316Z,64.87
2023-03-13T13:31:51.801Z,64.52
2023-03-13T13:34:31.028Z,64.34
2023-03-13T13:37:25.608Z,64.32
2023-03-13T13:39:54.182Z,64.53
2023-03-13T13:42:32.824Z,64.57
2023-03-13T13:45:01.060Z,64.21
2023-03-13T13:47:33.441Z,64.45
2023-03-13T13:50:01.138Z,63.86
2023-03-13T13:52:39.810Z,63.58
2023-03-13T13:55:26.468Z,63.67
2023-03-13T13:58:24.640Z,64.02
2023-03-13T14:00:59.341Z,63.59
2023-03-13T14:03:32.910Z,63.16
2023-03-13T14:06:17.813Z,63.31
2023-03-13T14:08:46.976Z,62.53
2023-03-13T14:11:38.827Z,63.02
2023-03-13T14:14:20.029Z,62.45
2023-03-13T14:16:57.170Z,62.25
2023-03-13T14:19:39.206Z,62.81
2023-03-13T14:22:12.178Z,62.16
2023-03-13T14:24:46.515Z,61.96
2023-03-13T14:27:18.454Z,64.50
2023-03-13T14:30:11.936Z,63.44
2023-03-13T14:32:52.608Z,63.18
2023-03-13T14:35:23.365Z,62.43
2023-03-13T14:37:55.888Z,61.93
2023-03-13T14:40:29.886Z,62.65
2023-03-13T14:43:02.261Z,61.82
2023-03-13T14:45:35.479Z,62.07
2023-03-13T14:48:10.229Z,61.91
2023-03-13T14:50:37.033Z,62.07
2023-03-13T14:53:12.836Z,61.84
2023-03-13T14:55:41.111Z,61.59
2023-03-13T14:58:20.136Z,62.03
2023-03-13T15:00:48.882Z,61.83
2023-03-13T15:03:20.222Z,61.67
2023-03-13T15:06:07.455Z,61.63
2023-03-13T15:08:37.960Z,61.95
2023-03-13T15:11:28.687Z,61.83
2023-03-13T15:13:56.608Z,62.03
2023-03-13T15:16:24.707Z,61.82
2023-03-13T15:18:53.633Z,61.65
2023-03-13T15:21:30.232Z,61.78
2023-03-13T15:24:03.472Z,61.91
2023-03-13T15:26:30.409Z,61.44
2023-03-13T15:28:57.370Z,61.31
2023-03-13T15:31:28.166Z,61.86
2023-03-13T15:33:59.226Z,61.59
2023-03-13T15:36:28.443Z,61.71
2023-03-13T15:38:56.606Z,61.69
2023-03-13T15:41:24.087Z,61.90
2023-03-13T15:43:52.658Z,61.67
2023-03-13T15:46:23.420Z,61.64
2023-03-13T15:48:54.024Z,61.80
2023-03-13T15:51:20.983Z,61.67
2023-03-13T15:53:47.977Z,61.53
2023-03-13T15:56:18.690Z,61.23
2023-03-13T15:58:47.845Z,61.31
2023-03-13T16:01:17.375Z,61.09
2023-03-13T16:03:44.611Z,60.85
2023-03-13T16:06:20.683Z,61.10
2023-03-13T16:08:47.702Z,61.02
2023-03-13T16:11:16.777Z,60.49
2023-03-13T16:13:43.968Z,60.72
2023-03-13T16:16:20.584Z,60.95
2023-03-13T16:18:53.888Z,60.88
2023-03-13T16:21:25.792Z,60.64
2023-03-13T16:23:53.255Z,60.56
2023-03-13T16:26:27.661Z,60.46
2023-03-13T16:28:55.191Z,62.89
2023-03-13T16:31:28.477Z,62.09
2023-03-13T16:33:56.635Z,61.98
2023-03-13T16:36:31.223Z,61.40
2023-03-13T16:39:05.441Z,61.21
2023-03-13T16:41:32.916Z,60.96
2023-03-13T16:43:59.742Z,61.01
2023-03-13T16:46:37.881Z,60.87
2023-03-13T16:49:06.116Z,60.64
2023-03-13T16:51:33.289Z,60.61
2023-03-13T16:54:00.620Z,60.52
2023-03-13T16:56:37.216Z,60.67
2023-03-13T16:59:10.159Z,60.40
2023-03-13T17:01:36.957Z,60.19
2023-03-13T17:04:04.387Z,60.03
2023-03-13T17:06:42.144Z,60.14
2023-03-13T17:09:16.305Z,60.12
2023-03-13T17:11:44.144Z,60.11
2023-03-13T17:14:11.655Z,59.81
2023-03-13T17:16:45.822Z,59.79
2023-03-13T17:19:14.332Z,60.05
2023-03-13T17:21:41.149Z,59.86
2023-03-13T17:24:08.261Z,59.75
2023-03-13T17:26:38.433Z,59.89
2023-03-13T17:29:07.029Z,59.83
2023-03-13T17:31:38.453Z,59.94
2023-03-13T17:34:07.203Z,59.83
2023-03-13T17:36:35.457Z,59.90
2023-03-13T17:39:05.618Z,59.93
2023-03-13T17:41:38.058Z,60.10
2023-03-13T17:44:07.723Z,59.99
2023-03-13T17:46:47.385Z,60.31
2023-03-13T17:49:17.368Z,60.42
2023-03-13T17:51:46.255Z,60.21
2023-03-13T17:54:15.650Z,60.37
2023-03-13T17:56:44.272Z,60.54
2023-03-13T17:59:17.156Z,60.88
2023-03-13T18:01:44.959Z,60.85
2023-03-13T18:04:12.998Z,60.78
2023-03-13T18:06:45.151Z,61.20
2023-03-13T18:09:16.792Z,61.18
2023-03-13T18:11:43.772Z,61.43
2023-03-13T18:14:11.359Z,61.21
2023-03-13T18:16:47.410Z,61.46
2023-03-13T18:19:22.464Z,61.60
2023-03-13T18:21:52.436Z,61.75
2023-03-13T18:24:20.031Z,61.78
2023-03-13T18:26:49.511Z,61.72
2023-03-13T18:29:26.339Z,61.88
2023-03-13T18:31:55.505Z,62.19
2023-03-13T18:34:23.775Z,62.00
2023-03-13T18:36:51.348Z,62.39
2023-03-13T18:39:19.964Z,62.43
2023-03-13T18:41:48.969Z,62.41
2023-03-13T18:44:18.816Z,62.55
2023-03-13T18:46:45.866Z,62.72
2023-03-13T18:49:24.584Z,62.65
2023-03-13T18:51:53.909Z,62.88
2023-03-13T18:54:20.778Z,62.71
2023-03-13T18:56:47.867Z,62.96
2023-03-13T18:59:20.624Z,62.61
2023-03-13T19:01:48.410Z,62.72
2023-03-13T19:04:16.371Z,62.77
2023-03-13T19:06:45.763Z,62.52
2023-03-13T19:09:41.713Z,62.42
2023-03-13T19:12:05.794Z,62.83
2023-03-13T19:14:33.250Z,62.57
2023-03-13T19:17:00.014Z,62.68
2023-03-13T19:19:26.945Z,62.64
2023-03-13T19:21:56.152Z,62.44
2023-03-13T19:24:26.491Z,62.49
2023-03-13T19:26:58.564Z,62.62
2023-03-13T19:29:27.866Z,62.22
2023-03-13T19:31:55.129Z,62.40
2023-03-13T19:34:22.049Z,62.19
2023-03-13T19:36:50.301Z,62.11
2023-03-13T19:39:25.438Z,62.02
2023-03-13T19:41:54.272Z,61.99
2023-03-13T19:44:21.749Z,61.91
2023-03-13T19:46:48.958Z,61.91
2023-03-13T19:49:18.802Z,62.08
2023-03-13T19:51:46.305Z,61.97
2023-03-13T19:54:13.658Z,62.01
2023-03-13T19:56:46.868Z,61.98
2023-03-13T19:59:26.742Z,61.79
2023-03-13T20:01:55.636Z,62.33
2023-03-13T20:04:22.700Z,62.30
2023-03-13T20:06:49.556Z,62.22
2023-03-13T20:09:17.977Z,62.42
2023-03-13T20:11:45.226Z,62.29
2023-03-13T20:14:12.436Z,62.72
2023-03-13T20:16:39.428Z,62.85
2023-03-13T20:19:06.396Z,62.80
2023-03-13T20:21:36.595Z,63.02
2023-03-13T20:24:03.926Z,63.13
2023-03-13T20:26:30.899Z,63.16
2023-03-13T20:28:58.313Z,63.25
2023-03-13T20:31:29.069Z,63.67
2023-03-13T20:33:57.887Z,63.51
2023-03-13T20:36:25.374Z,63.17
2023-03-13T20:38:52.772Z,63.45
2023-03-13T20:41:25.151Z,63.48
2023-03-13T20:43:52.800Z,63.49
2023-03-13T20:46:20.535Z,63.67
2023-03-13T20:48:47.393Z,63.85
2023-03-13T20:51:14.438Z,63.87
2023-03-13T20:53:42.520Z,64.00
2023-03-13T20:56:11.402Z,63.80
2023-03-13T20:58:38.902Z,63.90
2023-03-13T21:01:07.535Z,64.15
2023-03-13T21:03:35.920Z,64.17
2023-03-13T21:06:16.322Z,64.40
2023-03-13T21:08:45.565Z,64.38
2023-03-13T21:11:22.025Z,64.47
2023-03-13T21:13:50.069Z,64.53
2023-03-13T21:16:18.542Z,64.39
2023-03-13T21:18:46.322Z,64.37
2023-03-13T21:21:19.029Z,64.42
2023-03-13T21:23:46.877Z,64.67
2023-03-13T21:26:14.806Z,64.72
2023-03-13T21:28:41.919Z,64.51
2023-03-13T21:31:19.629Z,64.56
2023-03-13T21:33:47.231Z,64.57
2023-03-13T21:36:16.480Z,64.56
2023-03-13T21:38:44.578Z,64.75
2023-03-13T21:41:14.654Z,64.70
2023-03-13T21:43:42.815Z,64.84
2023-03-13T21:46:12.384Z,64.63
2023-03-13T21:48:40.728Z,64.74
2023-03-13T21:51:09.152Z,64.49
2023-03-13T21:53:36.804Z,64.64
2023-03-13T21:56:04.372Z,64.64
2023-03-13T21:58:31.311Z,64.76
2023-03-13T22:00:59.298Z,64.50
2023-03-13T22:03:26.659Z,64.50
2023-03-13T22:05:53.592Z,64.56
2023-03-13T22:08:20.498Z,64.73
2023-03-13T22:10:49.223Z,64.34
2023-03-13T22:13:17.337Z,64.22
2023-03-13T22:15:46.408Z,64.09
2023-03-13T22:18:15.340Z,64.11
2023-03-13T22:20:43.103Z,64.04
2023-03-13T22:23:11.515Z,64.03
2023-03-13T22:25:40.402Z,63.88
2023-03-13T22:28:07.402Z,63.75
2023-03-13T22:30:34.988Z,63.71
2023-03-13T22:33:03.791Z,63.56
2023-03-13T22:35:30.562Z,63.72
2023-03-13T22:37:57.352Z,63.70
2023-03-13T22:40:24.177Z,63.68
2023-03-13T22:42:51.677Z,63.64
2023-03-13T22:45:19.178Z,63.65
2023-03-13T22:47:46.031Z,63.83
2023-03-13T22:50:13.492Z,63.72
2023-03-13T22:52:40.677Z,63.72
2023-03-13T22:55:08.191Z,63.58
2023-03-13T22:57:35.034Z,63.77
2023-03-13T23:00:01.940Z,63.83
2023-03-13T23:02:29.158Z,63.74
2023-03-13T23:04:58.341Z,63.74
2023-03-13T23:07:28.423Z,64.04
2023-03-13T23:09:56.025Z,63.72
2023-03-13T23:12:24.274Z,63.58
2023-03-13T23:14:52.217Z,63.69
2023-03-13T23:17:19.079Z,63.58
2023-03-13T23:19:45.916Z,63.78
2023-03-13T23:22:17.639Z,63.75
2023-03-13T23:24:44.737Z,63.81
2023-03-13T23:27:11.794Z,63.80
2023-03-13T23:29:38.745Z,63.76
2023-03-13T23:32:05.642Z,63.88
2023-03-13T23:34:32.567Z,63.99
2023-03-13T23:36:59.652Z,63.77
2023-03-13T23:39:26.456Z,63.77
2023-03-13T23:41:53.237Z,63.80
2023-03-13T23:44:22.700Z,63.90
2023-03-13T23:46:49.541Z,64.11
2023-03-13T23:49:16.511Z,64.00
2023-03-13T23:51:43.358Z,63.79
2023-03-13T23:54:10.157Z,63.90
2023-03-13T23:56:39.912Z,63.84
2023-03-13T23:59:06.864Z,63.91
